createdAt,value
2018-02-21T00:01:18.817Z,101716.64
2018-02-21T00:03:46.430Z,101714.19
2018-02-21T00:06:14.096Z,101714.99
2018-02-21T00:08:41.741Z,101722.15
2018-02-21T00:11:09.569Z,101724.58
2018-02-21T00:13:37.310Z,101725.17
2018-02-21T00:16:05.009Z,101718.77
2018-02-21T00:18:32.744Z,101716.38
2018-02-21T00:21:00.575Z,101714.97
2018-02-21T00:23:28.457Z,101711.00
2018-02-21T00:25:56.066Z,101706.39
2018-02-21T00:28:23.812Z,101708.41
2018-02-21T00:30:51.593Z,101710.04
2018-02-21T00:33:19.263Z,101720.86
2018-02-21T00:35:47.135Z,101714.22
2018-02-21T00:38:15.022Z,101717.16
2018-02-21T00:40:42.694Z,101714.87
2018-02-21T00:43:10.475Z,101711.29
2018-02-21T00:45:38.359Z,101710.56
2018-02-21T00:48:05.982Z,101719.17
2018-02-21T00:50:33.606Z,101721.14
2018-02-21T00:53:01.484Z,101724.20
2018-02-21T00:55:29.262Z,101725.20
2018-02-21T00:57:56.918Z,101729.30
2018-02-21T01:00:24.818Z,101736.76
2018-02-21T01:02:52.513Z,101745.05
2018-02-21T01:05:20.167Z,101746.52
2018-02-21T01:07:48.046Z,101742.78
2018-02-21T01:10:15.705Z,101744.28
2018-02-21T01:12:43.499Z,101751.15
2018-02-21T01:15:11.277Z,101751.87
2018-02-21T01:17:38.905Z,101760.59
2018-02-21T01:20:06.732Z,101771.09
2018-02-21T01:22:34.398Z,101781.53
2018-02-21T01:25:02.133Z,101784.99
2018-02-21T01:27:29.901Z,101782.57
2018-02-21T01:29:57.640Z,101784.92
2018-02-21T01:32:25.304Z,101786.66
2018-02-21T01:34:53.096Z,101777.21
2018-02-21T01:37:20.759Z,101781.14
2018-02-21T01:39:48.645Z,101791.42
2018-02-21T01:42:16.424Z,101788.23
2018-02-21T01:44:44.103Z,101801.11
2018-02-21T01:47:11.828Z,101799.67
2018-02-21T01:49:39.452Z,101794.55
2018-02-21T01:52:07.188Z,101789.03
2018-02-21T01:54:34.889Z,101782.27
2018-02-21T01:57:02.645Z,101787.80
2018-02-21T01:59:30.351Z,101793.56
2018-02-21T02:01:58.027Z,101788.82
2018-02-21T02:04:26.733Z,101788.06
2018-02-21T02:06:54.510Z,101780.31
2018-02-21T02:09:22.187Z,101791.11
2018-02-21T02:11:49.773Z,101779.85
2018-02-21T02:14:18.252Z,101776.03
2018-02-21T02:16:45.932Z,101767.06
2018-02-21T02:19:13.540Z,101769.37
2018-02-21T02:21:41.193Z,101766.27
2018-02-21T02:24:08.854Z,101772.56
2018-02-21T02:26:36.523Z,101771.53
2018-02-21T02:29:04.205Z,101779.65
2018-02-21T02:31:31.880Z,101784.42
2018-02-21T02:33:59.465Z,101786.75
2018-02-21T02:36:27.320Z,101792.03
2018-02-21T02:39:06.777Z,101794.27
2018-02-21T02:41:34.452Z,101800.98
2018-02-21T02:44:02.126Z,101803.64
2018-02-21T02:46:29.819Z,101788.26
2018-02-21T02:48:57.413Z,101787.09
2018-02-21T02:51:25.252Z,101793.36
2018-02-21T02:53:52.867Z,101798.34
2018-02-21T02:56:20.715Z,101805.00
2018-02-21T02:58:48.479Z,101807.69
2018-02-21T03:01:16.155Z,101803.83
2018-02-21T03:03:43.846Z,101799.49
2018-02-21T03:06:11.573Z,101794.79
2018-02-21T03:08:39.297Z,101791.42
2018-02-21T03:11:06.943Z,101794.33
2018-02-21T03:13:34.852Z,101792.94
2018-02-21T03:16:02.633Z,101796.95
2018-02-21T03:18:30.307Z,101793.18
2018-02-21T03:20:58.086Z,101800.84
2018-02-21T03:23:25.757Z,101800.78
2018-02-21T03:25:53.504Z,101795.27
2018-02-21T03:28:21.212Z,101786.44
2018-02-21T03:30:48.883Z,101781.61
2018-02-21T03:33:16.511Z,101788.02
2018-02-21T03:35:44.343Z,101792.80
2018-02-21T03:38:11.996Z,101787.72
2018-02-21T03:40:39.796Z,101780.34
2018-02-21T03:43:07.543Z,101773.78
2018-02-21T03:45:35.231Z,101764.72
2018-02-21T03:48:02.872Z,101774.73
2018-02-21T03:50:30.461Z,101778.46
2018-02-21T03:52:58.176Z,101773.83
2018-02-21T03:55:25.847Z,101772.25
2018-02-21T03:57:53.525Z,101767.06
2018-02-21T04:00:21.183Z,101769.91
2018-02-21T04:02:48.975Z,101773.03
2018-02-21T04:05:16.720Z,101776.21
2018-02-21T04:07:44.349Z,101782.62
2018-02-21T04:10:11.942Z,101786.64
2018-02-21T04:12:39.676Z,101798.47
2018-02-21T04:15:07.408Z,101801.17
2018-02-21T04:17:35.148Z,101797.05
2018-02-21T04:20:02.805Z,101795.10
2018-02-21T04:22:30.479Z,101791.56
2018-02-21T04:24:58.156Z,101792.17
2018-02-21T04:27:25.891Z,101796.22
2018-02-21T04:29:54.128Z,101804.41
2018-02-21T04:32:21.785Z,101813.13
2018-02-21T04:34:49.576Z,101809.95
2018-02-21T04:37:17.197Z,101809.30
2018-02-21T04:39:45.033Z,101818.25
2018-02-21T04:42:12.704Z,101812.32
2018-02-21T04:44:40.482Z,101821.09
2018-02-21T04:47:08.104Z,101825.28
2018-02-21T04:49:35.723Z,101820.77
2018-02-21T04:52:03.611Z,101813.28
2018-02-21T04:57:53.242Z,101818.78
2018-02-21T05:00:22.040Z,101826.29
2018-02-21T05:02:49.639Z,101825.09
2018-02-21T05:05:17.480Z,101828.77
2018-02-21T05:07:45.271Z,101825.31
2018-02-21T05:10:12.889Z,101831.89
2018-02-21T05:12:40.657Z,101828.52
2018-02-21T05:15:08.285Z,101828.41
2018-02-21T05:17:35.942Z,101822.44
2018-02-21T05:20:03.639Z,101817.86
2018-02-21T05:22:31.454Z,101820.22
2018-02-21T05:24:59.414Z,101819.77
2018-02-21T05:27:27.182Z,101820.42
2018-02-21T05:29:54.863Z,101824.14
2018-02-21T05:32:22.566Z,101817.84
2018-02-21T05:34:50.291Z,101816.67
2018-02-21T05:37:18.100Z,101815.55
2018-02-21T05:39:45.872Z,101810.79
2018-02-21T05:42:13.652Z,101812.94
2018-02-21T05:44:41.322Z,101821.14
2018-02-21T05:47:08.976Z,101818.58
2018-02-21T05:49:36.784Z,101815.27
2018-02-21T05:52:04.455Z,101827.64
2018-02-21T05:54:32.337Z,101828.58
2018-02-21T05:57:00.009Z,101840.48
2018-02-21T05:59:27.668Z,101835.33
2018-02-21T06:01:55.458Z,101831.80
2018-02-21T06:04:23.251Z,101834.55
2018-02-21T06:06:51.020Z,101829.19
2018-02-21T06:09:18.797Z,101829.75
2018-02-21T06:11:46.662Z,101842.86
2018-02-21T06:14:14.257Z,101839.25
2018-02-21T06:16:41.895Z,101833.48
2018-02-21T06:19:09.703Z,101836.05
2018-02-21T06:21:37.370Z,101841.13
2018-02-21T06:24:05.039Z,101837.39
2018-02-21T06:26:32.727Z,101839.07
2018-02-21T06:29:00.406Z,101836.56
2018-02-21T06:31:28.180Z,101834.58
2018-02-21T06:33:55.797Z,101835.95
2018-02-21T06:36:23.640Z,101836.71
2018-02-21T06:38:51.401Z,101832.19
2018-02-21T06:41:19.156Z,101831.50
2018-02-21T06:43:46.761Z,101834.50
2018-02-21T06:46:14.548Z,101834.06
2018-02-21T06:48:42.324Z,101841.08
2018-02-21T06:51:09.994Z,101848.23
2018-02-21T06:53:37.770Z,101851.98
2018-02-21T06:56:05.446Z,101848.89
2018-02-21T06:58:33.128Z,101845.37
2018-02-21T07:01:00.800Z,101843.37
2018-02-21T07:03:28.577Z,101841.47
2018-02-21T07:05:56.256Z,101843.20
2018-02-21T07:08:23.849Z,101854.41
2018-02-21T07:10:51.713Z,101862.11
2018-02-21T07:13:19.378Z,101857.55
2018-02-21T07:15:47.038Z,101866.19
2018-02-21T07:18:14.802Z,101858.52
2018-02-21T07:20:42.509Z,101855.84
2018-02-21T07:23:10.181Z,101861.88
2018-02-21T07:25:37.863Z,101862.38
2018-02-21T07:28:05.540Z,101855.08
2018-02-21T07:30:33.315Z,101847.19
2018-02-21T07:33:00.998Z,101849.84
2018-02-21T07:35:28.844Z,101847.36
2018-02-21T07:37:56.544Z,101854.16
2018-02-21T07:40:24.328Z,101860.52
2018-02-21T07:42:52.204Z,101855.21
2018-02-21T07:45:19.985Z,101858.00
2018-02-21T07:47:47.590Z,101861.83
2018-02-21T07:50:15.362Z,101867.06
2018-02-21T07:52:43.007Z,101863.05
2018-02-21T07:55:10.748Z,101869.48
2018-02-21T07:57:38.566Z,101870.78
2018-02-21T08:00:06.172Z,101873.77
2018-02-21T08:02:33.915Z,101867.73
2018-02-21T08:05:01.719Z,101871.13
2018-02-21T08:07:29.476Z,101875.22
2018-02-21T08:09:57.143Z,101873.39
2018-02-21T08:12:24.819Z,101862.22
2018-02-21T08:14:52.486Z,101867.45
2018-02-21T08:17:20.173Z,101860.86
2018-02-21T08:19:47.903Z,101862.41
2018-02-21T08:22:15.732Z,101856.48
2018-02-21T08:24:43.468Z,101861.97
2018-02-21T08:27:11.174Z,101864.78
2018-02-21T08:29:38.950Z,101865.62
2018-02-21T08:32:06.637Z,101867.16
2018-02-21T08:34:34.257Z,101866.47
2018-02-21T08:37:01.990Z,101873.02
2018-02-21T08:39:29.765Z,101882.61
2018-02-21T08:41:57.857Z,101878.94
2018-02-21T08:44:25.735Z,101889.00
2018-02-21T08:46:53.609Z,101884.76
2018-02-21T08:49:21.245Z,101891.86
2018-02-21T08:51:48.955Z,101900.48
2018-02-21T08:54:16.945Z,101907.47
2018-02-21T08:56:44.534Z,101906.28
2018-02-21T08:59:12.173Z,101899.25
2018-02-21T09:01:39.970Z,101905.38
2018-02-21T09:04:07.748Z,101899.17
2018-02-21T09:06:35.476Z,101908.47
2018-02-21T09:09:03.305Z,101905.30
2018-02-21T09:11:31.081Z,101912.38
2018-02-21T09:13:58.860Z,101909.21
2018-02-21T09:16:26.582Z,101911.48
2018-02-21T09:18:54.401Z,101909.84
2018-02-21T09:21:22.135Z,101917.34
2018-02-21T09:23:49.762Z,101913.84
2018-02-21T09:26:17.431Z,101915.45
2018-02-21T09:28:45.171Z,101916.14
2018-02-21T09:31:12.901Z,101911.73
2018-02-21T09:33:40.776Z,101920.02
2018-02-21T09:36:08.365Z,101922.36
2018-02-21T09:38:36.021Z,101921.16
2018-02-21T09:41:03.748Z,101930.68
2018-02-21T09:43:31.491Z,101929.11
2018-02-21T09:45:59.254Z,101927.47
2018-02-21T09:48:26.995Z,101931.21
2018-02-21T09:50:54.812Z,101925.33
2018-02-21T09:53:22.470Z,101927.91
2018-02-21T09:55:50.157Z,101927.11
2018-02-21T09:58:17.828Z,101931.03
2018-02-21T10:00:45.716Z,101932.06
2018-02-21T10:03:13.381Z,101927.84
2018-02-21T10:05:40.984Z,101925.58
2018-02-21T10:08:08.652Z,101927.69
2018-02-21T10:10:36.316Z,101928.66
2018-02-21T10:13:04.091Z,101931.20
2018-02-21T10:15:31.830Z,101935.05
2018-02-21T10:17:59.550Z,101932.48
2018-02-21T10:20:27.431Z,101932.89
2018-02-21T10:22:55.090Z,101935.10
2018-02-21T10:25:22.771Z,101934.61
2018-02-21T10:27:50.426Z,101928.97
2018-02-21T10:30:18.022Z,101932.39
2018-02-21T10:32:45.696Z,101931.59
2018-02-21T10:35:13.328Z,101927.72
2018-02-21T10:37:41.158Z,101927.57
2018-02-21T10:40:09.027Z,101935.58
2018-02-21T10:42:36.715Z,101923.40
2018-02-21T10:45:04.492Z,101928.81
2018-02-21T10:47:32.145Z,101930.62
2018-02-21T10:49:59.913Z,101925.05
2018-02-21T10:52:27.725Z,101917.19
2018-02-21T10:54:55.402Z,101912.89
2018-02-21T10:57:23.177Z,101902.82
2018-02-21T10:59:50.850Z,101904.16
2018-02-21T11:02:18.515Z,101908.24
2018-02-21T11:04:46.198Z,101908.73
2018-02-21T11:07:13.979Z,101910.05
2018-02-21T11:09:41.615Z,101903.52
2018-02-21T11:12:09.434Z,101911.87
2018-02-21T11:14:37.017Z,101910.89
2018-02-21T11:17:04.600Z,101910.17
2018-02-21T11:19:32.236Z,101904.72
2018-02-21T11:22:00.031Z,101900.63
2018-02-21T11:24:27.810Z,101893.77
2018-02-21T11:26:55.466Z,101896.69
2018-02-21T11:29:23.045Z,101896.78
2018-02-21T11:31:50.784Z,101900.22
2018-02-21T11:34:19.229Z,101904.24
2018-02-21T11:36:46.845Z,101897.66
2018-02-21T11:39:14.578Z,101902.16
2018-02-21T11:41:42.297Z,101899.38
2018-02-21T11:44:09.934Z,101894.75
2018-02-21T11:46:37.707Z,101892.69
2018-02-21T11:49:05.486Z,101888.97
2018-02-21T11:51:33.239Z,101896.11
2018-02-21T11:54:00.940Z,101891.98
2018-02-21T11:56:28.598Z,101893.57
2018-02-21T11:58:56.395Z,101894.22
2018-02-21T12:01:24.171Z,101893.09
2018-02-21T12:03:51.831Z,101894.45
2018-02-21T12:06:19.727Z,101891.02
2018-02-21T12:08:47.307Z,101888.17
2018-02-21T12:11:14.971Z,101886.25
2018-02-21T12:13:42.648Z,101887.64
2018-02-21T12:16:10.320Z,101884.45
2018-02-21T12:18:38.103Z,101882.83
2018-02-21T12:21:05.937Z,101882.42
2018-02-21T12:23:33.541Z,101880.90
2018-02-21T12:26:01.334Z,101875.08
2018-02-21T12:28:29.216Z,101888.87
2018-02-21T12:30:56.993Z,101885.66
2018-02-21T12:33:24.772Z,101881.56
2018-02-21T12:35:52.545Z,101889.34
2018-02-21T12:38:20.425Z,101885.66
2018-02-21T12:40:53.722Z,101885.52
2018-02-21T12:43:21.514Z,101873.52
2018-02-21T12:45:49.287Z,101881.41
2018-02-21T12:48:16.878Z,101872.88
2018-02-21T12:50:44.746Z,101873.77
2018-02-21T12:53:12.335Z,101876.17
2018-02-21T12:55:39.928Z,101873.19
2018-02-21T12:58:07.657Z,101864.49
2018-02-21T13:00:35.240Z,101856.77
2018-02-21T13:03:02.912Z,101854.08
2018-02-21T13:05:30.594Z,101857.95
2018-02-21T13:07:58.253Z,101861.01
2018-02-21T13:10:26.046Z,101850.63
2018-02-21T13:12:53.723Z,101852.59
2018-02-21T13:15:21.383Z,101843.47
2018-02-21T13:17:49.140Z,101847.47
2018-02-21T13:20:16.958Z,101837.88
2018-02-21T13:22:44.630Z,101842.56
2018-02-21T13:25:12.258Z,101840.63
2018-02-21T13:27:39.986Z,101836.67
2018-02-21T13:30:07.653Z,101836.62
2018-02-21T13:32:35.385Z,101838.55
2018-02-21T13:35:03.209Z,101835.17
2018-02-21T13:37:30.829Z,101824.20
2018-02-21T13:39:58.562Z,101826.02
2018-02-21T13:42:26.181Z,101829.94
2018-02-21T13:44:53.913Z,101828.66
2018-02-21T13:47:21.541Z,101822.14
2018-02-21T13:49:49.146Z,101806.86
2018-02-21T13:52:16.832Z,101804.09
2018-02-21T13:54:44.507Z,101804.97
2018-02-21T13:57:12.249Z,101806.09
2018-02-21T13:59:40.069Z,101794.27
2018-02-21T14:02:07.732Z,101798.77
2018-02-21T14:04:36.335Z,101794.20
2018-02-21T14:07:04.010Z,101794.57
2018-02-21T14:09:31.687Z,101796.33
2018-02-21T14:11:59.365Z,101790.84
2018-02-21T14:14:27.140Z,101794.55
2018-02-21T14:16:54.716Z,101798.55
2018-02-21T14:19:22.387Z,101797.80
2018-02-21T14:21:50.113Z,101791.45
2018-02-21T14:24:17.841Z,101794.77
2018-02-21T14:26:45.511Z,101798.38
2018-02-21T14:29:13.187Z,101783.19
2018-02-21T14:31:40.930Z,101786.23
2018-02-21T14:34:08.648Z,101783.04
2018-02-21T14:36:36.313Z,101786.08
2018-02-21T14:39:04.102Z,101788.54
2018-02-21T14:41:31.884Z,101788.38
2018-02-21T14:43:59.659Z,101790.38
2018-02-21T14:46:27.271Z,101785.34
2018-02-21T14:48:55.012Z,101786.71
2018-02-21T14:51:22.682Z,101787.07
2018-02-21T14:53:50.362Z,101783.38
2018-02-21T14:56:18.249Z,101788.72
2018-02-21T14:58:46.020Z,101778.23
2018-02-21T15:01:13.605Z,101772.92
2018-02-21T15:03:41.372Z,101781.27
2018-02-21T15:06:08.992Z,101773.20
2018-02-21T15:08:36.724Z,101778.00
2018-02-21T15:11:04.491Z,101775.81
2018-02-21T15:13:32.228Z,101772.16
2018-02-21T15:15:59.829Z,101771.62
2018-02-21T15:18:27.443Z,101774.83
2018-02-21T15:20:55.100Z,101769.03
2018-02-21T15:23:22.985Z,101761.05
2018-02-21T15:25:50.652Z,101769.65
2018-02-21T15:28:18.237Z,101761.92
2018-02-21T15:30:46.002Z,101758.47
2018-02-21T15:33:13.585Z,101765.37
2018-02-21T15:35:41.356Z,101761.95
2018-02-21T15:38:09.018Z,101758.36
2018-02-21T15:40:36.763Z,101760.23
2018-02-21T15:43:04.365Z,101760.97
2018-02-21T15:45:32.148Z,101762.41
2018-02-21T15:47:59.781Z,101765.19
2018-02-21T15:50:27.438Z,101766.58
2018-02-21T15:52:55.289Z,101766.72
2018-02-21T15:55:22.966Z,101767.06
2018-02-21T15:57:50.637Z,101761.84
2018-02-21T16:00:18.296Z,101764.74
2018-02-21T16:02:45.980Z,101763.17
2018-02-21T16:05:13.873Z,101767.52
2018-02-21T16:07:41.648Z,101769.40
2018-02-21T16:10:09.382Z,101764.94
2018-02-21T16:12:37.207Z,101775.75
2018-02-21T16:15:04.985Z,101774.45
2018-02-21T16:17:32.661Z,101766.70
2018-02-21T16:20:00.402Z,101771.69
2018-02-21T16:22:28.114Z,101776.41
2018-02-21T16:24:55.771Z,101776.52
2018-02-21T16:27:23.458Z,101771.53
2018-02-21T16:29:51.216Z,101777.57
2018-02-21T16:32:19.004Z,101778.61
2018-02-21T16:34:46.587Z,101780.84
2018-02-21T16:37:14.249Z,101770.98
2018-02-21T16:39:42.044Z,101769.38
2018-02-21T16:42:09.773Z,101777.34
2018-02-21T16:44:37.394Z,101778.44
2018-02-21T16:47:05.062Z,101779.95
2018-02-21T16:49:32.794Z,101778.96
2018-02-21T16:52:00.627Z,101782.86
2018-02-21T16:54:28.291Z,101777.84
2018-02-21T16:56:56.068Z,101776.64
2018-02-21T16:59:23.853Z,101780.67
2018-02-21T17:01:51.634Z,101785.59
2018-02-21T17:04:19.323Z,101787.97
2018-02-21T17:06:47.087Z,101784.05
2018-02-21T17:09:14.697Z,101794.70
2018-02-21T17:11:42.542Z,101798.59
2018-02-21T17:14:10.199Z,101802.02
2018-02-21T17:16:37.893Z,101803.39
2018-02-21T17:19:05.568Z,101803.81
2018-02-21T17:21:33.192Z,101804.86
2018-02-21T17:24:00.921Z,101805.25
2018-02-21T17:26:28.770Z,101808.84
2018-02-21T17:28:56.475Z,101807.39
2018-02-21T17:31:24.153Z,101804.61
2018-02-21T17:33:51.930Z,101805.29
2018-02-21T17:36:19.513Z,101815.01
2018-02-21T17:38:47.121Z,101812.92
2018-02-21T17:41:20.381Z,101808.73
2018-02-21T17:43:48.039Z,101807.86
2018-02-21T17:46:15.736Z,101810.28
2018-02-21T17:48:43.361Z,101816.56
2018-02-21T17:51:11.012Z,101817.14
2018-02-21T17:53:38.645Z,101814.45
2018-02-21T17:56:06.340Z,101818.55
2018-02-21T17:58:34.115Z,101820.63
2018-02-21T18:01:01.898Z,101815.66
2018-02-21T18:03:29.500Z,101824.34
2018-02-21T18:05:57.087Z,101820.58
2018-02-21T18:08:24.915Z,101813.28
2018-02-21T18:10:52.590Z,101822.19
2018-02-21T18:13:20.267Z,101820.63
2018-02-21T18:15:47.936Z,101821.69
2018-02-21T18:18:15.560Z,101821.56
2018-02-21T18:20:43.293Z,101825.48
2018-02-21T18:23:10.968Z,101827.46
2018-02-21T18:25:38.752Z,101829.56
2018-02-21T18:28:06.639Z,101826.70
2018-02-21T18:30:34.509Z,101829.06
2018-02-21T18:33:02.149Z,101830.62
2018-02-21T18:35:29.855Z,101829.11
2018-02-21T18:37:57.639Z,101839.45
2018-02-21T18:40:25.714Z,101839.75
2018-02-21T18:42:53.316Z,101838.55
2018-02-21T18:45:21.177Z,101842.11
2018-02-21T18:47:48.902Z,101840.61
2018-02-21T18:50:16.819Z,101849.67
2018-02-21T18:52:44.424Z,101848.89
2018-02-21T18:55:12.184Z,101851.41
2018-02-21T18:57:39.836Z,101842.20
2018-02-21T19:00:07.537Z,101844.38
2018-02-21T19:02:35.198Z,101844.08
2018-02-21T19:05:02.988Z,101837.95
2018-02-21T19:07:30.761Z,101840.33
2018-02-21T19:09:58.544Z,101846.20
2018-02-21T19:12:26.327Z,101854.13
2018-02-21T19:14:54.014Z,101850.59
2018-02-21T19:17:21.726Z,101854.50
2018-02-21T19:19:49.323Z,101859.19
2018-02-21T19:22:17.021Z,101862.70
2018-02-21T19:24:44.802Z,101861.20
2018-02-21T19:27:12.484Z,101864.34
2018-02-21T19:29:40.151Z,101861.47
2018-02-21T19:32:07.934Z,101865.31
2018-02-21T19:34:35.583Z,101864.58
2018-02-21T19:37:03.280Z,101862.06
2018-02-21T19:39:30.950Z,101862.62
2018-02-21T19:41:58.688Z,101861.27
2018-02-21T19:44:26.278Z,101864.34
2018-02-21T19:46:54.074Z,101866.34
2018-02-21T19:49:21.760Z,101862.39
2018-02-21T19:51:49.439Z,101861.55
2018-02-21T19:54:17.316Z,101870.17
2018-02-21T19:56:45.096Z,101872.45
2018-02-21T19:59:12.771Z,101868.69
2018-02-21T20:01:40.521Z,101868.21
2018-02-21T20:04:08.220Z,101866.16
2018-02-21T20:06:35.808Z,101860.85
2018-02-21T20:09:03.499Z,101865.03
2018-02-21T20:11:31.355Z,101870.91
2018-02-21T20:13:59.127Z,101873.55
2018-02-21T20:16:26.913Z,101871.44
2018-02-21T20:18:54.690Z,101870.44
2018-02-21T20:21:22.319Z,101867.74
2018-02-21T20:23:50.038Z,101868.93
2018-02-21T20:26:17.800Z,101865.19
2018-02-21T20:28:45.397Z,101868.24
2018-02-21T20:31:13.062Z,101877.20
2018-02-21T20:33:40.944Z,101871.09
2018-02-21T20:36:08.727Z,101875.31
2018-02-21T20:38:36.398Z,101885.06
2018-02-21T20:41:04.280Z,101873.93
2018-02-21T20:43:32.096Z,101879.66
2018-02-21T20:45:59.821Z,101884.96
2018-02-21T20:48:27.610Z,101886.36
2018-02-21T20:50:55.390Z,101892.52
2018-02-21T20:53:23.168Z,101892.41
2018-02-21T20:55:50.928Z,101890.45
2018-02-21T20:58:18.611Z,101887.87
2018-02-21T21:00:46.210Z,101890.57
2018-02-21T21:03:13.877Z,101899.27
2018-02-21T21:05:41.539Z,101894.03
2018-02-21T21:08:09.145Z,101894.13
2018-02-21T21:10:36.812Z,101890.63
2018-02-21T21:13:04.555Z,101896.56
2018-02-21T21:15:32.246Z,101897.84
2018-02-21T21:18:00.025Z,101891.44
2018-02-21T21:20:27.690Z,101889.61
2018-02-21T21:22:55.291Z,101890.43
2018-02-21T21:25:23.100Z,101892.09
2018-02-21T21:27:50.706Z,101897.70
2018-02-21T21:30:18.510Z,101897.39
2018-02-21T21:32:46.182Z,101889.33
2018-02-21T21:35:13.844Z,101888.67
2018-02-21T21:37:41.587Z,101894.41
2018-02-21T21:40:09.307Z,101891.30
2018-02-21T21:42:37.038Z,101890.08
2018-02-21T21:45:04.743Z,101890.33
2018-02-21T21:47:32.429Z,101888.97
2018-02-21T21:50:03.418Z,101890.14
2018-02-21T21:52:31.270Z,101893.03
2018-02-21T21:54:59.681Z,101889.73
2018-02-21T21:57:27.436Z,101889.78
2018-02-21T21:59:55.119Z,101890.68
2018-02-21T22:02:22.789Z,101888.48
2018-02-21T22:04:51.279Z,101886.58
2018-02-21T22:07:18.877Z,101884.98
2018-02-21T22:09:46.508Z,101882.11
2018-02-21T22:12:14.284Z,101880.91
2018-02-21T22:14:41.880Z,101880.16
2018-02-21T22:17:09.664Z,101879.31
2018-02-21T22:19:37.548Z,101881.80
2018-02-21T22:22:05.136Z,101885.91
2018-02-21T22:24:32.774Z,101892.03
2018-02-21T22:27:00.572Z,101888.11
2018-02-21T22:29:28.342Z,101891.66
2018-02-21T22:31:56.129Z,101889.55
2018-02-21T22:34:23.796Z,101889.77
2018-02-21T22:36:51.472Z,101893.70
2018-02-21T22:39:19.151Z,101891.74
2018-02-21T22:41:46.759Z,101895.30
2018-02-21T22:44:14.470Z,101897.80
2018-02-21T22:46:42.165Z,101895.45
2018-02-21T22:49:09.962Z,101896.81
2018-02-21T22:51:37.840Z,101897.26
2018-02-21T22:54:05.461Z,101894.45
2018-02-21T22:56:33.118Z,101894.75
2018-02-21T22:59:00.755Z,101891.48
2018-02-21T23:01:28.426Z,101893.24
2018-02-21T23:03:56.179Z,101895.59
2018-02-21T23:06:23.820Z,101886.97
2018-02-21T23:08:51.438Z,101888.22
2018-02-21T23:11:19.244Z,101886.62
2018-02-21T23:13:47.068Z,101884.84
2018-02-21T23:16:14.714Z,101890.59
2018-02-21T23:18:42.314Z,101889.44
2018-02-21T23:21:09.913Z,101882.97
2018-02-21T23:23:37.619Z,101886.60
2018-02-21T23:26:05.345Z,101881.70
2018-02-21T23:28:32.955Z,101880.39
2018-02-21T23:31:00.749Z,101881.03
2018-02-21T23:33:28.399Z,101877.22
2018-02-21T23:35:56.203Z,101880.69
2018-02-21T23:38:23.886Z,101879.64
2018-02-21T23:40:51.655Z,101889.08
2018-02-21T23:43:19.514Z,101890.19
2018-02-21T23:45:47.138Z,101888.30
2018-02-21T23:48:15.093Z,101886.48
2018-02-21T23:50:42.695Z,101888.05
2018-02-21T23:53:10.342Z,101888.00
2018-02-21T23:55:38.218Z,101885.70
2018-02-21T23:58:05.813Z,101879.88
